首页
METAR-TAF:

METAR-TAF

机场 :

馬累, 马尔代夫

易卜拉欣·納西爾國際機場

纬度: 04-12N, 经度: 073-32E, 海拔: 2米

当前天气观测

该预报发布于1小时和22分钟前的21:00 UTC
风速7节,风向西转西北
温度 30°C
湿度 79%
气压 1007 hPa
能见度10公里或以上
少量云层高于1700英尺
少量云层高于1800英尺, 积雨云.
多云层高于27000英尺
雷暴

METAR: VRMM 252100Z 29007KT 9999 TS FEW017 FEW018CB BKN270 30/26 Q1007 RETS CB SE,W TEMPO 5000 -TSRA

时间: 03:22 (22:22 UTC)

预报

该预报发布于5小时和22分钟前的17:00 UTC
预报有效从25日的 18点(UTC)到 26日的 24点(UTC)
风速12节,风向西转西北
能见度10公里或以上
少量云层高于1900英尺, 塔状积云.
短暂存在
从 25日的 18点(UTC)到 25日的 24点(UTC)
能見度: 6000
少量云层高于1900英尺, 积雨云.
雷暴, 小雨

TAF: VRMM 251700Z 2518/2624 29012KT 9999 FEW019TCU TEMPO 2518/2524 6000 -TSRA FEW019CB

超过4000个机场的气象观测和天气预报(METAR&TAF报告)。

可查询的气象台以黄色和红色小点在地图上表示。

将鼠标移到小点上方,可查看气象台名称。

然后点击查看天气观测和预报。

如需切换地图:点击带黑十字的绿色按钮放大地图;点击带横线的绿色按钮缩小地图;或者点击绿色箭头查看邻近地区的地图。


METAR-TAF: